Atbasar, Kazakhstan
Current Conditions -  °F | °C
As of 6:30 PM on Saturday 20 Dec 2014 (Local Time) from UACK Reporting Station
Clear Clear  
Wind Chill:   Ceiling: Unl
Heat Index: 18°   Visibility: 6mi
Dew Point: 10°   Wind: 11mph
Humidity: 73%   Direction: 220°SW
Pressure: 30.12"   Gusts: NA
Location:  51.82°N, 68.35°E
Report Text: UACK 201230Z 22005MPS CAVOK M08/M12 Q1020 R20/490337 NOSIG RMKQFE741/0989
Loading
Personal Weather Stations






























Interactive Weather Map New forecast layout! Learn more

10-Day Weather Forecast

Advertisements
Track Severe Weather on mobile